sensor_id;sensor_type;location;lat;lon;timestamp;temperature;humidity
5358;DHT22;2702;51.014;7.170;2023-02-28T00:00:06;-0.30;99.90
5358;DHT22;2702;51.014;7.170;2023-02-28T00:02:37;-0.30;99.90
5358;DHT22;2702;51.014;7.170;2023-02-28T00:05:03;-0.30;99.90
5358;DHT22;2702;51.014;7.170;2023-02-28T00:07:30;-0.30;99.90
5358;DHT22;2702;51.014;7.170;2023-02-28T00:09:56;-0.30;99.90
5358;DHT22;2702;51.014;7.170;2023-02-28T00:12:23;-0.40;99.90
5358;DHT22;2702;51.014;7.170;2023-02-28T00:14:49;-0.30;99.90
5358;DHT22;2702;51.014;7.170;2023-02-28T00:17:15;-0.40;99.90
5358;DHT22;2702;51.014;7.170;2023-02-28T00:19:43;-0.40;99.90
5358;DHT22;2702;51.014;7.170;2023-02-28T00:22:10;-0.40;99.90
5358;DHT22;2702;51.014;7.170;2023-02-28T00:24:36;-0.30;99.90
5358;DHT22;2702;51.014;7.170;2023-02-28T00:27:01;-0.40;99.90
5358;DHT22;2702;51.014;7.170;2023-02-28T00:29:27;-0.40;99.90
5358;DHT22;2702;51.014;7.170;2023-02-28T00:31:53;-0.40;99.90
5358;DHT22;2702;51.014;7.170;2023-02-28T00:34:19;-0.40;99.90
5358;DHT22;2702;51.014;7.170;2023-02-28T00:36:45;-0.40;99.90
5358;DHT22;2702;51.014;7.170;2023-02-28T00:39:15;-0.40;99.90
5358;DHT22;2702;51.014;7.170;2023-02-28T00:41:41;-0.50;99.90
5358;DHT22;2702;51.014;7.170;2023-02-28T00:44:06;-0.50;99.90
5358;DHT22;2702;51.014;7.170;2023-02-28T00:46:32;-0.50;99.90
5358;DHT22;2702;51.014;7.170;2023-02-28T00:48:58;-0.50;99.90
5358;DHT22;2702;51.014;7.170;2023-02-28T00:51:24;-0.40;99.90
5358;DHT22;2702;51.014;7.170;2023-02-28T00:53:50;-0.50;99.90
5358;DHT22;2702;51.014;7.170;2023-02-28T00:56:16;-0.50;99.90
5358;DHT22;2702;51.014;7.170;2023-02-28T00:58:42;-0.50;99.90
5358;DHT22;2702;51.014;7.170;2023-02-28T01:01:09;-0.50;99.90
5358;DHT22;2702;51.014;7.170;2023-02-28T01:03:35;-0.50;99.90
5358;DHT22;2702;51.014;7.170;2023-02-28T01:06:00;-0.60;99.90
5358;DHT22;2702;51.014;7.170;2023-02-28T01:08:26;-0.60;99.90
5358;DHT22;2702;51.014;7.170;2023-02-28T01:10:52;-0.60;99.90
5358;DHT22;2702;51.014;7.170;2023-02-28T01:13:19;-0.60;99.90
5358;DHT22;2702;51.014;7.170;2023-02-28T01:15:54;-0.60;99.90
5358;DHT22;2702;51.014;7.170;2023-02-28T01:18:21;-0.70;99.90
5358;DHT22;2702;51.014;7.170;2023-02-28T01:20:47;-0.70;99.90
5358;DHT22;2702;51.014;7.170;2023-02-28T01:23:13;-0.60;99.90
5358;DHT22;2702;51.014;7.170;2023-02-28T01:25:39;-0.60;99.90
5358;DHT22;2702;51.014;7.170;2023-02-28T01:28:05;-0.60;99.90
5358;DHT22;2702;51.014;7.170;2023-02-28T01:30:31;-0.60;99.90
5358;DHT22;2702;51.014;7.170;2023-02-28T01:32:58;-0.60;99.90
5358;DHT22;2702;51.014;7.170;2023-02-28T01:35:24;-0.60;99.90
5358;DHT22;2702;51.014;7.170;2023-02-28T01:37:50;-0.60;99.90
5358;DHT22;2702;51.014;7.170;2023-02-28T01:40:16;-0.70;99.90
5358;DHT22;2702;51.014;7.170;2023-02-28T01:42:41;-0.70;99.90
5358;DHT22;2702;51.014;7.170;2023-02-28T01:47:58;-0.60;99.90
5358;DHT22;2702;51.014;7.170;2023-02-28T01:50:28;-0.70;99.90
5358;DHT22;2702;51.014;7.170;2023-02-28T01:52:57;-0.70;99.90
5358;DHT22;2702;51.014;7.170;2023-02-28T01:55:25;-0.80;99.90
5358;DHT22;2702;51.014;7.170;2023-02-28T01:57:57;-0.70;99.90
5358;DHT22;2702;51.014;7.170;2023-02-28T02:00:26;-0.70;99.90
5358;DHT22;2702;51.014;7.170;2023-02-28T02:02:56;-0.70;99.90
5358;DHT22;2702;51.014;7.170;2023-02-28T02:05:26;-0.70;99.90
5358;DHT22;2702;51.014;7.170;2023-02-28T02:07:55;-0.70;99.90
5358;DHT22;2702;51.014;7.170;2023-02-28T02:10:36;-0.70;99.90
5358;DHT22;2702;51.014;7.170;2023-02-28T02:16:25;-0.60;99.90
5358;DHT22;2702;51.014;7.170;2023-02-28T02:19:02;-0.70;99.90
5358;DHT22;2702;51.014;7.170;2023-02-28T02:24:45;-0.70;99.90
5358;DHT22;2702;51.014;7.170;2023-02-28T02:27:27;-0.60;99.90
5358;DHT22;2702;51.014;7.170;2023-02-28T02:32:52;-0.70;99.90
5358;DHT22;2702;51.014;7.170;2023-02-28T02:43:57;-0.70;99.90
5358;DHT22;2702;51.014;7.170;2023-02-28T02:46:40;-0.70;99.90
5358;DHT22;2702;51.014;7.170;2023-02-28T02:49:10;-0.80;99.90
5358;DHT22;2702;51.014;7.170;2023-02-28T02:51:40;-0.80;99.90
5358;DHT22;2702;51.014;7.170;2023-02-28T02:54:21;-0.80;99.90
5358;DHT22;2702;51.014;7.170;2023-02-28T02:56:48;-0.80;99.90
5358;DHT22;2702;51.014;7.170;2023-02-28T02:59:20;-0.90;99.90
5358;DHT22;2702;51.014;7.170;2023-02-28T03:01:52;-0.90;99.90
5358;DHT22;2702;51.014;7.170;2023-02-28T03:04:21;-0.90;99.90
5358;DHT22;2702;51.014;7.170;2023-02-28T03:06:48;-0.90;99.90
5358;DHT22;2702;51.014;7.170;2023-02-28T03:09:14;-0.90;99.90
5358;DHT22;2702;51.014;7.170;2023-02-28T03:11:40;-0.90;99.90
5358;DHT22;2702;51.014;7.170;2023-02-28T03:22:57;-1.00;99.90
5358;DHT22;2702;51.014;7.170;2023-02-28T03:31:22;-1.10;99.90
5358;DHT22;2702;51.014;7.170;2023-02-28T03:36:31;-1.10;99.90
5358;DHT22;2702;51.014;7.170;2023-02-28T03:39:05;-1.10;99.90
5358;DHT22;2702;51.014;7.170;2023-02-28T03:44:23;-1.20;99.90
5358;DHT22;2702;51.014;7.170;2023-02-28T03:47:00;-1.20;99.90
5358;DHT22;2702;51.014;7.170;2023-02-28T03:49:40;-1.20;99.90
5358;DHT22;2702;51.014;7.170;2023-02-28T03:52:09;-1.30;99.90
5358;DHT22;2702;51.014;7.170;2023-02-28T03:54:42;-1.30;99.90
5358;DHT22;2702;51.014;7.170;2023-02-28T03:57:36;-1.30;99.90
5358;DHT22;2702;51.014;7.170;2023-02-28T04:00:14;-1.30;99.90
5358;DHT22;2702;51.014;7.170;2023-02-28T04:02:43;-1.30;99.90
5358;DHT22;2702;51.014;7.170;2023-02-28T04:05:09;-1.30;99.90
5358;DHT22;2702;51.014;7.170;2023-02-28T04:07:35;-1.30;99.90
5358;DHT22;2702;51.014;7.170;2023-02-28T04:10:02;-1.30;99.90
5358;DHT22;2702;51.014;7.170;2023-02-28T04:12:28;-1.40;99.90
5358;DHT22;2702;51.014;7.170;2023-02-28T04:14:54;-1.40;99.90
5358;DHT22;2702;51.014;7.170;2023-02-28T04:17:20;-1.40;99.90
5358;DHT22;2702;51.014;7.170;2023-02-28T04:19:46;-1.40;99.90
5358;DHT22;2702;51.014;7.170;2023-02-28T04:22:11;-1.40;99.90
5358;DHT22;2702;51.014;7.170;2023-02-28T04:24:37;-1.50;99.90
5358;DHT22;2702;51.014;7.170;2023-02-28T04:27:08;-1.50;99.90
5358;DHT22;2702;51.014;7.170;2023-02-28T04:29:34;-1.50;99.90
5358;DHT22;2702;51.014;7.170;2023-02-28T04:32:01;-1.50;99.90
5358;DHT22;2702;51.014;7.170;2023-02-28T04:34:28;-1.50;99.90
5358;DHT22;2702;51.014;7.170;2023-02-28T04:36:55;-1.50;99.90
5358;DHT22;2702;51.014;7.170;2023-02-28T04:39:22;-1.50;99.90
5358;DHT22;2702;51.014;7.170;2023-02-28T04:41:48;-1.60;99.90
5358;DHT22;2702;51.014;7.170;2023-02-28T04:44:15;-1.60;99.90
5358;DHT22;2702;51.014;7.170;2023-02-28T04:46:42;-1.60;99.90
5358;DHT22;2702;51.014;7.170;2023-02-28T04:49:12;-1.50;99.90
5358;DHT22;2702;51.014;7.170;2023-02-28T04:51:38;-1.50;99.90
5358;DHT22;2702;51.014;7.170;2023-02-28T04:54:05;-1.60;99.90
5358;DHT22;2702;51.014;7.170;2023-02-28T04:56:30;-1.50;99.90
5358;DHT22;2702;51.014;7.170;2023-02-28T04:58:56;-1.50;99.90
5358;DHT22;2702;51.014;7.170;2023-02-28T05:01:26;-1.50;99.90
5358;DHT22;2702;51.014;7.170;2023-02-28T05:03:54;-1.40;99.90
5358;DHT22;2702;51.014;7.170;2023-02-28T05:06:22;-1.40;99.90
5358;DHT22;2702;51.014;7.170;2023-02-28T05:08:49;-1.50;99.90
5358;DHT22;2702;51.014;7.170;2023-02-28T05:11:22;-1.40;99.90
5358;DHT22;2702;51.014;7.170;2023-02-28T05:13:50;-1.50;99.90
5358;DHT22;2702;51.014;7.170;2023-02-28T05:16:16;-1.40;99.90
5358;DHT22;2702;51.014;7.170;2023-02-28T05:18:43;-1.50;99.90
5358;DHT22;2702;51.014;7.170;2023-02-28T05:21:31;-1.50;99.90
5358;DHT22;2702;51.014;7.170;2023-02-28T05:24:03;-1.50;99.90
5358;DHT22;2702;51.014;7.170;2023-02-28T05:26:30;-1.40;99.90
5358;DHT22;2702;51.014;7.170;2023-02-28T05:28:56;-1.50;99.90
5358;DHT22;2702;51.014;7.170;2023-02-28T05:31:22;-1.50;99.90
5358;DHT22;2702;51.014;7.170;2023-02-28T05:33:48;-1.50;99.90
5358;DHT22;2702;51.014;7.170;2023-02-28T05:36:14;-1.50;99.90
5358;DHT22;2702;51.014;7.170;2023-02-28T05:38:40;-1.60;99.90
5358;DHT22;2702;51.014;7.170;2023-02-28T05:41:08;-1.60;99.90
5358;DHT22;2702;51.014;7.170;2023-02-28T05:43:35;-1.60;99.90
5358;DHT22;2702;51.014;7.170;2023-02-28T05:46:04;-1.60;99.90
5358;DHT22;2702;51.014;7.170;2023-02-28T05:48:31;-1.70;99.90
5358;DHT22;2702;51.014;7.170;2023-02-28T05:50:58;-1.70;99.90
5358;DHT22;2702;51.014;7.170;2023-02-28T05:53:24;-1.70;99.90
5358;DHT22;2702;51.014;7.170;2023-02-28T05:55:49;-1.60;99.90
5358;DHT22;2702;51.014;7.170;2023-02-28T05:58:15;-1.70;99.90
5358;DHT22;2702;51.014;7.170;2023-02-28T06:00:41;-1.60;99.90
5358;DHT22;2702;51.014;7.170;2023-02-28T06:03:07;-1.70;99.90
5358;DHT22;2702;51.014;7.170;2023-02-28T06:05:32;-1.70;99.90
5358;DHT22;2702;51.014;7.170;2023-02-28T06:07:58;-1.70;99.90
5358;DHT22;2702;51.014;7.170;2023-02-28T06:10:24;-1.60;99.90
5358;DHT22;2702;51.014;7.170;2023-02-28T06:12:50;-1.60;99.90
5358;DHT22;2702;51.014;7.170;2023-02-28T06:15:16;-1.60;99.90
5358;DHT22;2702;51.014;7.170;2023-02-28T06:17:44;-1.60;99.90
5358;DHT22;2702;51.014;7.170;2023-02-28T06:20:11;-1.70;99.90
5358;DHT22;2702;51.014;7.170;2023-02-28T06:22:39;-1.70;99.90
5358;DHT22;2702;51.014;7.170;2023-02-28T06:25:06;-1.70;99.90
5358;DHT22;2702;51.014;7.170;2023-02-28T06:27:33;-1.70;99.90
5358;DHT22;2702;51.014;7.170;2023-02-28T06:29:59;-1.70;99.90
5358;DHT22;2702;51.014;7.170;2023-02-28T06:32:25;-1.70;99.90
5358;DHT22;2702;51.014;7.170;2023-02-28T06:34:52;-1.70;99.90
5358;DHT22;2702;51.014;7.170;2023-02-28T06:37:18;-1.70;99.90
5358;DHT22;2702;51.014;7.170;2023-02-28T06:39:44;-1.80;99.90
5358;DHT22;2702;51.014;7.170;2023-02-28T06:42:10;-1.70;99.90
5358;DHT22;2702;51.014;7.170;2023-02-28T06:44:36;-1.70;99.90
5358;DHT22;2702;51.014;7.170;2023-02-28T06:47:04;-1.70;99.90
5358;DHT22;2702;51.014;7.170;2023-02-28T06:49:32;-1.70;99.90
5358;DHT22;2702;51.014;7.170;2023-02-28T06:51:58;-1.60;99.90
5358;DHT22;2702;51.014;7.170;2023-02-28T06:54:24;-1.70;99.90
5358;DHT22;2702;51.014;7.170;2023-02-28T06:56:50;-1.60;99.90
5358;DHT22;2702;51.014;7.170;2023-02-28T06:59:16;-1.60;99.90
5358;DHT22;2702;51.014;7.170;2023-02-28T07:01:42;-1.50;99.90
5358;DHT22;2702;51.014;7.170;2023-02-28T07:04:08;-1.50;99.90
5358;DHT22;2702;51.014;7.170;2023-02-28T07:06:34;-1.50;99.90
5358;DHT22;2702;51.014;7.170;2023-02-28T07:09:00;-1.40;99.90
5358;DHT22;2702;51.014;7.170;2023-02-28T07:11:27;-1.40;99.90
5358;DHT22;2702;51.014;7.170;2023-02-28T07:13:54;-1.40;99.90
5358;DHT22;2702;51.014;7.170;2023-02-28T07:16:21;-1.40;99.90
5358;DHT22;2702;51.014;7.170;2023-02-28T07:18:48;-1.30;99.90
5358;DHT22;2702;51.014;7.170;2023-02-28T07:21:14;-1.30;99.90
5358;DHT22;2702;51.014;7.170;2023-02-28T07:23:40;-1.20;99.90
5358;DHT22;2702;51.014;7.170;2023-02-28T07:26:11;-1.20;99.90
5358;DHT22;2702;51.014;7.170;2023-02-28T07:28:44;-1.20;99.90
5358;DHT22;2702;51.014;7.170;2023-02-28T07:31:12;-1.10;99.90
5358;DHT22;2702;51.014;7.170;2023-02-28T07:33:39;-1.10;99.90
5358;DHT22;2702;51.014;7.170;2023-02-28T07:36:08;-1.00;99.90
5358;DHT22;2702;51.014;7.170;2023-02-28T07:38:35;-1.00;99.90
5358;DHT22;2702;51.014;7.170;2023-02-28T07:41:02;-1.00;99.90
5358;DHT22;2702;51.014;7.170;2023-02-28T07:43:31;-0.90;99.90
5358;DHT22;2702;51.014;7.170;2023-02-28T07:46:02;-0.90;99.90
5358;DHT22;2702;51.014;7.170;2023-02-28T07:48:29;-0.80;99.90
5358;DHT22;2702;51.014;7.170;2023-02-28T07:50:56;-0.80;99.90
5358;DHT22;2702;51.014;7.170;2023-02-28T07:53:22;-0.70;99.90
5358;DHT22;2702;51.014;7.170;2023-02-28T07:55:47;-0.60;99.90
5358;DHT22;2702;51.014;7.170;2023-02-28T07:58:13;-0.60;99.90
5358;DHT22;2702;51.014;7.170;2023-02-28T08:00:39;-0.60;99.90
5358;DHT22;2702;51.014;7.170;2023-02-28T08:03:05;-0.50;99.90
5358;DHT22;2702;51.014;7.170;2023-02-28T08:05:31;-0.40;99.90
5358;DHT22;2702;51.014;7.170;2023-02-28T08:07:57;-0.40;99.90
5358;DHT22;2702;51.014;7.170;2023-02-28T08:10:23;-0.30;99.90
5358;DHT22;2702;51.014;7.170;2023-02-28T08:12:49;-0.20;99.90
5358;DHT22;2702;51.014;7.170;2023-02-28T08:15:15;-0.10;99.90
5358;DHT22;2702;51.014;7.170;2023-02-28T08:17:41;0.00;99.90
5358;DHT22;2702;51.014;7.170;2023-02-28T08:20:07;0.10;99.90
5358;DHT22;2702;51.014;7.170;2023-02-28T08:22:34;0.30;99.90
5358;DHT22;2702;51.014;7.170;2023-02-28T08:25:00;0.40;99.90
5358;DHT22;2702;51.014;7.170;2023-02-28T08:27:26;0.50;99.90
5358;DHT22;2702;51.014;7.170;2023-02-28T08:29:52;0.60;99.90
5358;DHT22;2702;51.014;7.170;2023-02-28T08:32:17;0.70;99.90
5358;DHT22;2702;51.014;7.170;2023-02-28T08:34:43;0.80;99.90
5358;DHT22;2702;51.014;7.170;2023-02-28T08:37:09;0.90;99.90
5358;DHT22;2702;51.014;7.170;2023-02-28T08:39:36;1.00;99.90
5358;DHT22;2702;51.014;7.170;2023-02-28T08:42:03;1.10;99.90
5358;DHT22;2702;51.014;7.170;2023-02-28T08:44:29;1.20;99.90
5358;DHT22;2702;51.014;7.170;2023-02-28T08:46:55;1.30;99.90
5358;DHT22;2702;51.014;7.170;2023-02-28T08:49:20;1.40;99.90
5358;DHT22;2702;51.014;7.170;2023-02-28T08:51:46;1.50;99.90
5358;DHT22;2702;51.014;7.170;2023-02-28T08:54:12;1.50;99.90
5358;DHT22;2702;51.014;7.170;2023-02-28T08:56:38;1.50;99.90
5358;DHT22;2702;51.014;7.170;2023-02-28T08:59:04;1.60;99.90
5358;DHT22;2702;51.014;7.170;2023-02-28T09:01:30;1.50;99.90
5358;DHT22;2702;51.014;7.170;2023-02-28T09:03:58;1.60;99.90
5358;DHT22;2702;51.014;7.170;2023-02-28T09:06:26;1.80;99.90
5358;DHT22;2702;51.014;7.170;2023-02-28T09:08:52;1.90;99.90
5358;DHT22;2702;51.014;7.170;2023-02-28T09:11:19;2.00;99.90
5358;DHT22;2702;51.014;7.170;2023-02-28T09:13:46;2.10;99.90
5358;DHT22;2702;51.014;7.170;2023-02-28T09:16:13;2.10;99.90
5358;DHT22;2702;51.014;7.170;2023-02-28T09:18:40;2.20;99.90
5358;DHT22;2702;51.014;7.170;2023-02-28T09:21:08;2.20;99.90
5358;DHT22;2702;51.014;7.170;2023-02-28T09:23:34;2.30;99.90
5358;DHT22;2702;51.014;7.170;2023-02-28T09:26:00;2.40;99.90
5358;DHT22;2702;51.014;7.170;2023-02-28T09:28:27;2.50;99.90
5358;DHT22;2702;51.014;7.170;2023-02-28T09:30:54;2.50;99.90
5358;DHT22;2702;51.014;7.170;2023-02-28T09:33:21;2.50;99.90
5358;DHT22;2702;51.014;7.170;2023-02-28T09:35:51;2.50;99.90
5358;DHT22;2702;51.014;7.170;2023-02-28T09:38:22;2.50;99.90
5358;DHT22;2702;51.014;7.170;2023-02-28T09:40:57;2.60;99.90
5358;DHT22;2702;51.014;7.170;2023-02-28T09:43:34;2.60;99.90
5358;DHT22;2702;51.014;7.170;2023-02-28T09:46:29;2.70;99.90
5358;DHT22;2702;51.014;7.170;2023-02-28T09:49:00;2.70;99.90
5358;DHT22;2702;51.014;7.170;2023-02-28T09:54:19;2.80;99.90
5358;DHT22;2702;51.014;7.170;2023-02-28T09:57:37;2.90;99.90
5358;DHT22;2702;51.014;7.170;2023-02-28T10:05:24;3.00;99.90
5358;DHT22;2702;51.014;7.170;2023-02-28T10:10:50;3.20;99.90
5358;DHT22;2702;51.014;7.170;2023-02-28T10:13:36;3.30;99.90
5358;DHT22;2702;51.014;7.170;2023-02-28T10:16:20;3.60;99.90
5358;DHT22;2702;51.014;7.170;2023-02-28T10:26:52;3.50;99.90
5358;DHT22;2702;51.014;7.170;2023-02-28T10:29:22;3.60;99.90
5358;DHT22;2702;51.014;7.170;2023-02-28T10:31:48;3.40;99.90
5358;DHT22;2702;51.014;7.170;2023-02-28T10:34:14;3.40;99.90
5358;DHT22;2702;51.014;7.170;2023-02-28T10:36:41;3.40;99.90
5358;DHT22;2702;51.014;7.170;2023-02-28T10:39:34;3.50;99.90
5358;DHT22;2702;51.014;7.170;2023-02-28T10:42:01;3.50;99.90
5358;DHT22;2702;51.014;7.170;2023-02-28T10:44:26;3.40;99.90
5358;DHT22;2702;51.014;7.170;2023-02-28T10:46:52;3.40;99.90
5358;DHT22;2702;51.014;7.170;2023-02-28T10:49:36;3.40;99.90
5358;DHT22;2702;51.014;7.170;2023-02-28T10:52:07;3.30;99.90
5358;DHT22;2702;51.014;7.170;2023-02-28T10:54:36;3.30;99.90
5358;DHT22;2702;51.014;7.170;2023-02-28T10:57:20;3.10;99.90
5358;DHT22;2702;51.014;7.170;2023-02-28T10:59:51;3.10;99.90
5358;DHT22;2702;51.014;7.170;2023-02-28T11:02:34;3.10;99.90
5358;DHT22;2702;51.014;7.170;2023-02-28T11:05:00;3.20;99.90
5358;DHT22;2702;51.014;7.170;2023-02-28T11:07:27;3.10;99.90
5358;DHT22;2702;51.014;7.170;2023-02-28T11:09:57;2.90;99.90
5358;DHT22;2702;51.014;7.170;2023-02-28T11:12:28;3.00;99.90
5358;DHT22;2702;51.014;7.170;2023-02-28T11:14:57;3.00;99.90
5358;DHT22;2702;51.014;7.170;2023-02-28T11:17:30;3.00;99.90
5358;DHT22;2702;51.014;7.170;2023-02-28T11:20:02;3.10;99.90
5358;DHT22;2702;51.014;7.170;2023-02-28T11:22:32;3.20;99.90
5358;DHT22;2702;51.014;7.170;2023-02-28T11:25:06;3.30;99.90
5358;DHT22;2702;51.014;7.170;2023-02-28T11:30:00;3.50;99.90
5358;DHT22;2702;51.014;7.170;2023-02-28T11:32:28;3.60;99.90
5358;DHT22;2702;51.014;7.170;2023-02-28T11:37:37;4.10;99.90
5358;DHT22;2702;51.014;7.170;2023-02-28T11:40:14;4.20;99.90
5358;DHT22;2702;51.014;7.170;2023-02-28T11:43:05;4.30;99.90
5358;DHT22;2702;51.014;7.170;2023-02-28T11:46:11;4.50;99.90
5358;DHT22;2702;51.014;7.170;2023-02-28T11:51:27;4.20;99.90
5358;DHT22;2702;51.014;7.170;2023-02-28T11:56:47;4.60;99.90
5358;DHT22;2702;51.014;7.170;2023-02-28T12:10:25;4.80;99.90
5358;DHT22;2702;51.014;7.170;2023-02-28T12:13:26;4.90;99.90
5358;DHT22;2702;51.014;7.170;2023-02-28T12:21:15;5.00;99.90
5358;DHT22;2702;51.014;7.170;2023-02-28T12:28:59;5.10;99.90
5358;DHT22;2702;51.014;7.170;2023-02-28T12:31:30;5.10;99.90
5358;DHT22;2702;51.014;7.170;2023-02-28T12:34:03;5.20;99.90
5358;DHT22;2702;51.014;7.170;2023-02-28T12:36:30;5.40;99.90
5358;DHT22;2702;51.014;7.170;2023-02-28T12:39:04;5.30;99.90
5358;DHT22;2702;51.014;7.170;2023-02-28T12:41:43;5.50;99.90
5358;DHT22;2702;51.014;7.170;2023-02-28T12:44:34;5.50;99.90
5358;DHT22;2702;51.014;7.170;2023-02-28T12:47:04;5.50;99.90
5358;DHT22;2702;51.014;7.170;2023-02-28T12:49:36;5.70;99.90
5358;DHT22;2702;51.014;7.170;2023-02-28T12:52:04;5.60;99.90
5358;DHT22;2702;51.014;7.170;2023-02-28T12:54:53;5.70;99.90
5358;DHT22;2702;51.014;7.170;2023-02-28T12:57:40;5.80;99.90
5358;DHT22;2702;51.014;7.170;2023-02-28T13:00:14;5.60;99.90
5358;DHT22;2702;51.014;7.170;2023-02-28T13:03:14;5.50;99.90
5358;DHT22;2702;51.014;7.170;2023-02-28T13:14:29;5.40;99.90
5358;DHT22;2702;51.014;7.170;2023-02-28T13:19:39;5.60;99.90
5358;DHT22;2702;51.014;7.170;2023-02-28T13:22:21;5.70;99.90
5358;DHT22;2702;51.014;7.170;2023-02-28T13:27:58;5.70;99.90
5358;DHT22;2702;51.014;7.170;2023-02-28T13:33:27;5.70;99.90
5358;DHT22;2702;51.014;7.170;2023-02-28T13:36:09;5.20;99.90
5358;DHT22;2702;51.014;7.170;2023-02-28T13:38:50;5.20;99.90
5358;DHT22;2702;51.014;7.170;2023-02-28T13:51:49;5.60;99.90
5358;DHT22;2702;51.014;7.170;2023-02-28T13:59:36;5.50;99.90
5358;DHT22;2702;51.014;7.170;2023-02-28T14:05:20;5.60;99.90
5358;DHT22;2702;51.014;7.170;2023-02-28T14:07:54;5.70;99.90
5358;DHT22;2702;51.014;7.170;2023-02-28T14:10:34;5.80;99.90
5358;DHT22;2702;51.014;7.170;2023-02-28T14:13:13;5.90;99.90
5358;DHT22;2702;51.014;7.170;2023-02-28T14:15:55;5.90;99.90
5358;DHT22;2702;51.014;7.170;2023-02-28T14:18:35;5.90;99.90
5358;DHT22;2702;51.014;7.170;2023-02-28T14:32:49;6.30;99.90
5358;DHT22;2702;51.014;7.170;2023-02-28T14:38:25;6.40;99.90
5358;DHT22;2702;51.014;7.170;2023-02-28T14:40:57;6.30;99.90
5358;DHT22;2702;51.014;7.170;2023-02-28T14:43:28;6.30;99.90
5358;DHT22;2702;51.014;7.170;2023-02-28T14:45:58;6.30;99.90
5358;DHT22;2702;51.014;7.170;2023-02-28T14:48:26;6.30;99.90
5358;DHT22;2702;51.014;7.170;2023-02-28T14:50:55;6.10;99.90
5358;DHT22;2702;51.014;7.170;2023-02-28T14:53:24;5.90;99.90
5358;DHT22;2702;51.014;7.170;2023-02-28T14:55:50;6.00;99.90
5358;DHT22;2702;51.014;7.170;2023-02-28T14:58:27;6.10;99.90
5358;DHT22;2702;51.014;7.170;2023-02-28T15:00:56;6.00;99.90
5358;DHT22;2702;51.014;7.170;2023-02-28T15:03:31;6.00;99.90
5358;DHT22;2702;51.014;7.170;2023-02-28T15:06:03;6.10;99.90
5358;DHT22;2702;51.014;7.170;2023-02-28T15:08:30;6.10;99.90
5358;DHT22;2702;51.014;7.170;2023-02-28T15:11:29;6.20;99.90
5358;DHT22;2702;51.014;7.170;2023-02-28T15:13:55;6.10;99.90
5358;DHT22;2702;51.014;7.170;2023-02-28T15:16:41;5.90;99.90
5358;DHT22;2702;51.014;7.170;2023-02-28T15:19:21;5.90;99.90
5358;DHT22;2702;51.014;7.170;2023-02-28T15:21:52;6.00;99.90
5358;DHT22;2702;51.014;7.170;2023-02-28T15:24:37;5.80;99.90
5358;DHT22;2702;51.014;7.170;2023-02-28T15:27:15;5.80;99.90
5358;DHT22;2702;51.014;7.170;2023-02-28T15:29:48;5.90;99.90
5358;DHT22;2702;51.014;7.170;2023-02-28T15:32:33;5.90;99.90
5358;DHT22;2702;51.014;7.170;2023-02-28T15:38:25;6.00;99.90
5358;DHT22;2702;51.014;7.170;2023-02-28T15:40:52;6.10;99.90
5358;DHT22;2702;51.014;7.170;2023-02-28T15:43:26;6.00;99.90
5358;DHT22;2702;51.014;7.170;2023-02-28T15:45:57;6.00;99.90
5358;DHT22;2702;51.014;7.170;2023-02-28T15:48:28;5.90;99.90
5358;DHT22;2702;51.014;7.170;2023-02-28T15:51:20;5.80;99.90
5358;DHT22;2702;51.014;7.170;2023-02-28T15:54:06;5.80;99.90
5358;DHT22;2702;51.014;7.170;2023-02-28T15:56:46;5.80;99.90
5358;DHT22;2702;51.014;7.170;2023-02-28T15:59:16;5.90;99.90
5358;DHT22;2702;51.014;7.170;2023-02-28T16:01:44;6.10;99.90
5358;DHT22;2702;51.014;7.170;2023-02-28T16:04:19;6.00;99.90
5358;DHT22;2702;51.014;7.170;2023-02-28T16:06:46;6.00;99.90
5358;DHT22;2702;51.014;7.170;2023-02-28T16:09:16;5.80;99.90
5358;DHT22;2702;51.014;7.170;2023-02-28T16:11:53;5.80;99.90
5358;DHT22;2702;51.014;7.170;2023-02-28T16:14:23;5.70;99.90
5358;DHT22;2702;51.014;7.170;2023-02-28T16:16:51;5.50;99.90
5358;DHT22;2702;51.014;7.170;2023-02-28T16:19:18;5.50;99.90
5358;DHT22;2702;51.014;7.170;2023-02-28T16:21:45;5.30;99.90
5358;DHT22;2702;51.014;7.170;2023-02-28T16:24:11;5.20;99.90
5358;DHT22;2702;51.014;7.170;2023-02-28T16:26:37;5.30;99.90
5358;DHT22;2702;51.014;7.170;2023-02-28T16:29:05;5.40;99.90
5358;DHT22;2702;51.014;7.170;2023-02-28T16:31:37;5.30;99.90
5358;DHT22;2702;51.014;7.170;2023-02-28T16:34:03;5.10;99.90
5358;DHT22;2702;51.014;7.170;2023-02-28T16:36:30;5.00;99.90
5358;DHT22;2702;51.014;7.170;2023-02-28T16:38:56;4.90;99.90
5358;DHT22;2702;51.014;7.170;2023-02-28T16:41:25;4.80;99.90
5358;DHT22;2702;51.014;7.170;2023-02-28T16:43:54;4.80;99.90
5358;DHT22;2702;51.014;7.170;2023-02-28T16:46:30;4.70;99.90
5358;DHT22;2702;51.014;7.170;2023-02-28T16:48:57;4.70;99.90
5358;DHT22;2702;51.014;7.170;2023-02-28T16:51:23;4.60;99.90
5358;DHT22;2702;51.014;7.170;2023-02-28T16:53:49;4.50;99.90
5358;DHT22;2702;51.014;7.170;2023-02-28T16:56:23;4.50;99.90
5358;DHT22;2702;51.014;7.170;2023-02-28T16:58:51;4.40;99.90
5358;DHT22;2702;51.014;7.170;2023-02-28T17:01:18;4.40;99.90
5358;DHT22;2702;51.014;7.170;2023-02-28T17:03:48;4.20;99.90
5358;DHT22;2702;51.014;7.170;2023-02-28T17:06:25;4.10;99.90
5358;DHT22;2702;51.014;7.170;2023-02-28T17:08:54;4.00;99.90
5358;DHT22;2702;51.014;7.170;2023-02-28T17:11:20;3.90;99.90
5358;DHT22;2702;51.014;7.170;2023-02-28T17:13:46;3.90;99.90
5358;DHT22;2702;51.014;7.170;2023-02-28T17:16:30;3.80;99.90
5358;DHT22;2702;51.014;7.170;2023-02-28T17:18:59;3.90;99.90
5358;DHT22;2702;51.014;7.170;2023-02-28T17:21:26;3.80;99.90
5358;DHT22;2702;51.014;7.170;2023-02-28T17:23:52;3.90;99.90
5358;DHT22;2702;51.014;7.170;2023-02-28T17:26:20;3.90;99.90
5358;DHT22;2702;51.014;7.170;2023-02-28T17:28:48;3.70;99.90
5358;DHT22;2702;51.014;7.170;2023-02-28T17:31:14;3.70;99.90
5358;DHT22;2702;51.014;7.170;2023-02-28T17:33:40;3.60;99.90
5358;DHT22;2702;51.014;7.170;2023-02-28T17:36:09;3.50;99.90
5358;DHT22;2702;51.014;7.170;2023-02-28T17:38:37;3.50;99.90
5358;DHT22;2702;51.014;7.170;2023-02-28T17:41:02;3.40;99.90
5358;DHT22;2702;51.014;7.170;2023-02-28T17:43:28;3.40;99.90
5358;DHT22;2702;51.014;7.170;2023-02-28T17:45:54;3.40;99.90
5358;DHT22;2702;51.014;7.170;2023-02-28T17:48:21;3.30;99.90
5358;DHT22;2702;51.014;7.170;2023-02-28T17:50:47;3.30;99.90
5358;DHT22;2702;51.014;7.170;2023-02-28T17:53:13;3.20;99.90
5358;DHT22;2702;51.014;7.170;2023-02-28T17:55:39;3.10;99.90
5358;DHT22;2702;51.014;7.170;2023-02-28T17:58:05;3.10;99.90
5358;DHT22;2702;51.014;7.170;2023-02-28T18:00:31;3.10;99.90
5358;DHT22;2702;51.014;7.170;2023-02-28T18:03:00;3.00;99.90
5358;DHT22;2702;51.014;7.170;2023-02-28T18:05:26;3.00;99.90
5358;DHT22;2702;51.014;7.170;2023-02-28T18:07:52;3.00;99.90
5358;DHT22;2702;51.014;7.170;2023-02-28T18:10:20;3.00;99.90
5358;DHT22;2702;51.014;7.170;2023-02-28T18:12:47;2.90;99.90
5358;DHT22;2702;51.014;7.170;2023-02-28T18:15:15;2.90;99.90
5358;DHT22;2702;51.014;7.170;2023-02-28T18:17:41;3.00;99.90
5358;DHT22;2702;51.014;7.170;2023-02-28T18:20:09;2.90;99.90
5358;DHT22;2702;51.014;7.170;2023-02-28T18:22:36;2.90;99.90
5358;DHT22;2702;51.014;7.170;2023-02-28T18:25:04;2.80;99.90
5358;DHT22;2702;51.014;7.170;2023-02-28T18:27:30;2.70;99.90
5358;DHT22;2702;51.014;7.170;2023-02-28T18:29:56;2.70;99.90
5358;DHT22;2702;51.014;7.170;2023-02-28T18:32:22;2.60;99.90
5358;DHT22;2702;51.014;7.170;2023-02-28T18:34:48;2.60;99.90
5358;DHT22;2702;51.014;7.170;2023-02-28T18:37:14;2.60;99.90
5358;DHT22;2702;51.014;7.170;2023-02-28T18:39:40;2.60;99.90
5358;DHT22;2702;51.014;7.170;2023-02-28T18:42:06;2.50;99.90
5358;DHT22;2702;51.014;7.170;2023-02-28T18:44:33;2.50;99.90
5358;DHT22;2702;51.014;7.170;2023-02-28T18:46:59;2.40;99.90
5358;DHT22;2702;51.014;7.170;2023-02-28T18:49:25;2.30;99.90
5358;DHT22;2702;51.014;7.170;2023-02-28T18:51:50;2.30;99.90